Time;durP1;ratioP1;P1;durP2;ratioP2;P2;SDS_P1;SDS_P2;PMS_P1;PMS_P2;Temp;Humidity;BMP_temperature;BMP_pressure;BME280_temperature;BME280_humidity;BME280_pressure;Samples;Min_cycle;Max_cycle;Signal;HPM_P1;HPM_P2
2022/12/21 00:01:26;;;;;;;;;;;5.60;99.90;;;;;;6246979;23;19904;-71
2022/12/21 00:03:53;;;;;;;;;;;5.50;99.90;;;;;;6247359;23;19899;-72
2022/12/21 00:06:18;;;;;;;;;;;5.40;99.90;;;;;;6246905;23;19939;-72
2022/12/21 00:08:45;;;;;;;;;;;5.70;99.90;;;;;;6247716;23;20310;-71
2022/12/21 00:11:11;;;;;;;;;;;5.80;99.90;;;;;;6246921;23;19945;-71
2022/12/21 00:13:37;;;;;;;;;;;5.90;99.90;;;;;;6247245;23;19900;-72
2022/12/21 00:16:04;;;;;;;;;;;6.00;99.90;;;;;;6246882;23;20238;-72
2022/12/21 00:18:33;;;;;;;;;;;6.10;99.90;;;;;;6247527;23;19907;-72
2022/12/21 00:21:09;;;;;;;;;;;6.10;99.90;;;;;;6246860;23;19901;-72
2022/12/21 00:23:35;;;;;;;;;;;6.00;99.90;;;;;;6247219;23;20279;-72
2022/12/21 00:26:02;;;;;;;;;;;6.00;99.90;;;;;;6246632;22;19903;-71
2022/12/21 00:28:27;;;;;;;;;;;6.10;99.90;;;;;;6247118;23;19900;-72
2022/12/21 00:30:53;;;;;;;;;;;6.20;99.90;;;;;;6246542;23;19915;-72
2022/12/21 00:33:19;;;;;;;;;;;6.30;99.90;;;;;;6247113;23;19899;-71
2022/12/21 00:35:48;;;;;;;;;;;6.30;99.90;;;;;;6246643;23;19900;-71
2022/12/21 00:38:14;;;;;;;;;;;6.30;99.90;;;;;;6246689;23;19950;-71
2022/12/21 00:40:39;;;;;;;;;;;6.20;99.90;;;;;;6246719;23;20322;-71
2022/12/21 00:43:05;;;;;;;;;;;6.20;99.90;;;;;;6246992;23;19906;-72
2022/12/21 00:45:30;;;;;;;;;;;6.10;99.90;;;;;;6246310;23;19910;-71
2022/12/21 00:47:56;;;;;;;;;;;6.10;99.90;;;;;;6246984;23;20295;-71
2022/12/21 00:50:21;;;;;;;;;;;6.40;99.90;;;;;;6246615;23;19900;-71
2022/12/21 00:52:47;;;;;;;;;;;6.60;99.90;;;;;;6246569;23;20233;-72
2022/12/21 00:55:12;;;;;;;;;;;6.40;99.90;;;;;;6247231;23;19918;-71
2022/12/21 00:57:38;;;;;;;;;;;6.30;99.90;;;;;;6246886;23;19903;-72
2022/12/21 01:00:04;;;;;;;;;;;6.20;99.90;;;;;;6246903;23;19899;-71
2022/12/21 01:02:29;;;;;;;;;;;6.10;99.90;;;;;;6219595;23;19899;-72
2022/12/21 01:04:55;;;;;;;;;;;6.00;99.90;;;;;;6246454;23;19990;-72
2022/12/21 01:07:20;;;;;;;;;;;5.90;99.90;;;;;;6246872;23;19900;-72
2022/12/21 01:09:46;;;;;;;;;;;5.90;99.90;;;;;;6219577;23;19900;-71
2022/12/21 01:12:11;;;;;;;;;;;5.70;99.90;;;;;;6246512;23;20215;-72
2022/12/21 01:14:37;;;;;;;;;;;5.70;99.90;;;;;;6246490;23;19981;-71
2022/12/21 01:17:02;;;;;;;;;;;5.90;99.90;;;;;;6246469;23;19938;-72
2022/12/21 01:19:28;;;;;;;;;;;5.90;99.90;;;;;;6246502;23;19971;-72
2022/12/21 01:21:53;;;;;;;;;;;5.90;99.90;;;;;;6246762;23;19982;-72
2022/12/21 01:24:18;;;;;;;;;;;5.70;99.90;;;;;;6246253;22;19904;-72
2022/12/21 01:26:44;;;;;;;;;;;5.80;99.90;;;;;;6246753;23;19961;-71
2022/12/21 01:29:13;;;;;;;;;;;5.90;99.90;;;;;;6246383;23;19899;-71
2022/12/21 01:31:39;;;;;;;;;;;5.90;99.90;;;;;;6246364;23;20322;-71
2022/12/21 01:34:04;;;;;;;;;;;5.70;99.90;;;;;;6246364;23;19970;-71
2022/12/21 01:36:30;;;;;;;;;;;5.60;99.90;;;;;;6246757;23;19922;-71
2022/12/21 01:38:55;;;;;;;;;;;5.60;99.90;;;;;;6246349;23;19906;-71
2022/12/21 01:41:25;;;;;;;;;;;5.80;99.90;;;;;;6219471;23;19991;-71
2022/12/21 01:43:57;;;;;;;;;;;5.70;99.90;;;;;;6246694;23;19899;-71
2022/12/21 01:46:30;;;;;;;;;;;5.80;99.90;;;;;;6246228;23;19903;-71
2022/12/21 01:48:58;;;;;;;;;;;5.90;99.90;;;;;;6246709;23;19899;-71
2022/12/21 01:51:24;;;;;;;;;;;6.00;99.90;;;;;;6246345;23;19900;-71
2022/12/21 01:53:52;;;;;;;;;;;6.10;99.90;;;;;;6247027;23;19900;-71
2022/12/21 01:56:19;;;;;;;;;;;6.00;99.90;;;;;;6246422;23;19946;-71
2022/12/21 01:58:45;;;;;;;;;;;6.10;99.90;;;;;;6248243;23;19899;-71
2022/12/21 02:01:10;;;;;;;;;;;6.30;99.90;;;;;;6248265;23;19906;-71
2022/12/21 02:03:41;;;;;;;;;;;6.50;99.90;;;;;;6248190;23;19899;-71
2022/12/21 02:06:08;;;;;;;;;;;6.60;99.90;;;;;;6248745;23;19903;-71
2022/12/21 02:08:34;;;;;;;;;;;6.80;99.90;;;;;;6248120;23;20384;-72
2022/12/21 02:11:00;;;;;;;;;;;6.80;99.90;;;;;;6248457;23;19900;-71
2022/12/21 02:13:25;;;;;;;;;;;6.70;99.90;;;;;;6248075;23;19903;-71
2022/12/21 02:15:54;;;;;;;;;;;6.80;99.90;;;;;;6248439;23;20310;-71
2022/12/21 02:18:26;;;;;;;;;;;6.80;99.90;;;;;;6248011;23;20333;-71
2022/12/21 02:21:15;;;;;;;;;;;6.90;99.90;;;;;;6248764;23;19899;-72
2022/12/21 02:24:02;;;;;;;;;;;7.20;99.90;;;;;;6177573;23;19899;-71
2022/12/21 02:26:46;;;;;;;;;;;7.10;99.90;;;;;;6248587;23;19903;-71
2022/12/21 02:29:30;;;;;;;;;;;7.00;99.90;;;;;;6247873;23;19900;-72
2022/12/21 02:32:13;;;;;;;;;;;6.80;99.90;;;;;;6247789;23;20302;-72
2022/12/21 02:34:47;;;;;;;;;;;6.70;99.90;;;;;;6248252;23;19903;-71
2022/12/21 02:37:19;;;;;;;;;;;6.90;99.90;;;;;;6247873;23;19899;-71
2022/12/21 02:39:57;;;;;;;;;;;7.00;99.90;;;;;;6248158;23;19907;-71
2022/12/21 02:45:29;;;;;;;;;;;6.80;99.90;;;;;;6247421;23;19949;-72
2022/12/21 02:48:04;;;;;;;;;;;7.00;99.90;;;;;;6248102;23;19900;-70
2022/12/21 02:50:37;;;;;;;;;;;7.10;99.90;;;;;;6247780;23;19906;-71
2022/12/21 02:53:08;;;;;;;;;;;7.00;99.90;;;;;;6247655;23;19900;-72
2022/12/21 02:55:34;;;;;;;;;;;7.10;99.90;;;;;;6247660;23;19906;-71
2022/12/21 02:58:16;;;;;;;;;;;7.20;99.90;;;;;;6247645;23;19978;-71
2022/12/21 03:00:56;;;;;;;;;;;7.10;99.90;;;;;;6247640;23;19950;-71
2022/12/21 03:06:05;;;;;;;;;;;7.10;99.90;;;;;;6247587;23;19958;-71
2022/12/21 03:08:40;;;;;;;;;;;7.20;99.90;;;;;;6247638;23;19899;-71
2022/12/21 03:11:06;;;;;;;;;;;7.20;99.90;;;;;;6247537;23;20310;-71
2022/12/21 03:13:47;;;;;;;;;;;7.30;99.90;;;;;;6248183;23;19974;-72
2022/12/21 03:16:23;;;;;;;;;;;7.30;99.90;;;;;;6247517;23;19907;-71
2022/12/21 03:19:02;;;;;;;;;;;7.20;99.90;;;;;;6247844;23;20319;-72
2022/12/21 03:21:40;;;;;;;;;;;7.30;99.90;;;;;;6247408;23;20234;-72
2022/12/21 03:24:28;;;;;;;;;;;7.50;99.90;;;;;;6247659;22;19908;-72
2022/12/21 03:26:56;;;;;;;;;;;7.70;99.90;;;;;;6247813;23;19907;-71
2022/12/21 03:29:26;;;;;;;;;;;8.00;99.90;;;;;;6247333;23;19900;-71
2022/12/21 03:31:55;;;;;;;;;;;8.00;99.90;;;;;;6247450;23;20286;-72
2022/12/21 03:34:29;;;;;;;;;;;8.10;99.90;;;;;;6247978;23;19900;-72
2022/12/21 03:36:57;;;;;;;;;;;8.20;99.90;;;;;;6247282;23;19899;-72
2022/12/21 03:39:24;;;;;;;;;;;8.10;99.90;;;;;;6247256;23;20034;-72
2022/12/21 03:42:07;;;;;;;;;;;8.10;99.90;;;;;;6247233;23;19899;-71
2022/12/21 03:44:36;;;;;;;;;;;8.30;99.90;;;;;;6247078;23;19969;-72
2022/12/21 03:47:05;;;;;;;;;;;8.40;99.90;;;;;;6247560;23;20237;-71
2022/12/21 03:49:52;;;;;;;;;;;8.50;99.90;;;;;;6247179;23;19899;-72
2022/12/21 03:52:19;;;;;;;;;;;8.60;99.90;;;;;;6247551;23;19906;-72
2022/12/21 03:54:45;;;;;;;;;;;8.70;99.90;;;;;;6247135;23;20325;-72
2022/12/21 03:57:11;;;;;;;;;;;8.70;99.90;;;;;;6247071;23;19899;-72
2022/12/21 03:59:38;;;;;;;;;;;8.80;99.90;;;;;;6247413;23;19907;-71
2022/12/21 04:02:22;;;;;;;;;;;8.80;99.90;;;;;;6247007;23;19961;-71
2022/12/21 04:04:50;;;;;;;;;;;8.90;99.90;;;;;;6246881;23;20004;-72
2022/12/21 04:07:18;;;;;;;;;;;8.90;99.90;;;;;;6247012;23;19906;-71
2022/12/21 04:09:44;;;;;;;;;;;8.90;99.90;;;;;;6246960;23;20325;-72
2022/12/21 04:14:56;;;;;;;;;;;8.70;99.90;;;;;;6247321;23;20225;-72
2022/12/21 04:17:21;;;;;;;;;;;8.60;99.90;;;;;;6247234;23;19930;-72
2022/12/21 04:19:59;;;;;;;;;;;8.50;99.90;;;;;;6247153;23;19972;-72
2022/12/21 04:28:09;;;;;;;;;;;8.70;99.90;;;;;;6246504;23;19907;-71
2022/12/21 04:30:35;;;;;;;;;;;8.60;99.90;;;;;;6246938;23;19900;-72
2022/12/21 04:33:01;;;;;;;;;;;8.50;99.90;;;;;;6247145;23;19938;-72
2022/12/21 04:35:26;;;;;;;;;;;8.50;99.90;;;;;;6246746;23;19906;-72
2022/12/21 04:37:52;;;;;;;;;;;8.40;99.90;;;;;;6246710;23;19899;-71
2022/12/21 04:40:17;;;;;;;;;;;8.40;99.90;;;;;;6219846;23;20315;-71
2022/12/21 04:42:43;;;;;;;;;;;8.30;99.90;;;;;;6246695;23;19910;-71
2022/12/21 04:45:08;;;;;;;;;;;8.30;99.90;;;;;;6246885;23;19911;-71
2022/12/21 04:47:34;;;;;;;;;;;8.20;99.90;;;;;;6246589;23;20237;-72
2022/12/21 04:49:59;;;;;;;;;;;8.20;99.90;;;;;;6246932;23;20230;-71
2022/12/21 04:52:25;;;;;;;;;;;8.40;99.90;;;;;;6246609;23;19903;-72
2022/12/21 04:54:50;;;;;;;;;;;8.50;99.90;;;;;;6246579;23;19950;-72
2022/12/21 04:57:16;;;;;;;;;;;8.60;99.90;;;;;;6246925;23;20198;-72
2022/12/21 04:59:44;;;;;;;;;;;8.70;99.90;;;;;;6246556;23;19899;-72
2022/12/21 05:02:10;;;;;;;;;;;8.60;99.90;;;;;;6246895;23;20034;-72
2022/12/21 05:04:35;;;;;;;;;;;8.70;99.90;;;;;;6246427;23;19954;-71
2022/12/21 05:07:01;;;;;;;;;;;8.70;99.90;;;;;;6246548;23;20385;-71
2022/12/21 05:09:27;;;;;;;;;;;8.70;99.90;;;;;;6246565;23;19907;-71
2022/12/21 05:11:53;;;;;;;;;;;8.70;99.90;;;;;;6246834;23;19899;-72
2022/12/21 05:14:18;;;;;;;;;;;8.80;99.90;;;;;;6246523;23;19899;-72
2022/12/21 05:16:44;;;;;;;;;;;8.90;99.90;;;;;;6247165;23;20210;-71
2022/12/21 05:19:09;;;;;;;;;;;8.90;99.90;;;;;;6247513;23;19899;-71
2022/12/21 05:21:35;;;;;;;;;;;9.00;99.90;;;;;;6246405;23;19986;-72
2022/12/21 05:24:00;;;;;;;;;;;8.90;99.90;;;;;;6246340;22;19942;-72
2022/12/21 05:26:26;;;;;;;;;;;8.90;99.90;;;;;;6246646;23;19990;-71
2022/12/21 05:28:51;;;;;;;;;;;9.00;99.90;;;;;;6246453;23;20237;-71
2022/12/21 05:31:17;;;;;;;;;;;9.10;99.90;;;;;;6247516;23;19965;-72
2022/12/21 05:33:43;;;;;;;;;;;9.10;99.90;;;;;;6249208;23;19903;-72
2022/12/21 05:36:12;;;;;;;;;;;9.20;99.90;;;;;;6248461;23;19907;-72
2022/12/21 05:38:38;;;;;;;;;;;9.20;99.90;;;;;;6248822;23;19938;-71
2022/12/21 05:41:03;;;;;;;;;;;9.20;99.90;;;;;;6248420;23;19899;-72
2022/12/21 05:43:29;;;;;;;;;;;9.20;99.90;;;;;;6249072;23;20310;-72
2022/12/21 05:46:09;;;;;;;;;;;9.30;99.90;;;;;;6221369;23;20325;-72
2022/12/21 05:48:35;;;;;;;;;;;9.30;99.90;;;;;;6249011;23;19971;-72
2022/12/21 05:51:07;;;;;;;;;;;9.30;99.90;;;;;;6248308;23;19899;-71
2022/12/21 05:53:33;;;;;;;;;;;9.30;99.90;;;;;;6248268;23;19903;-72
2022/12/21 05:55:58;;;;;;;;;;;9.30;99.90;;;;;;6248569;23;19950;-71
2022/12/21 05:58:24;;;;;;;;;;;9.20;99.90;;;;;;6248247;23;19899;-72
2022/12/21 06:00:50;;;;;;;;;;;9.30;99.90;;;;;;6248539;23;20322;-72
2022/12/21 06:03:15;;;;;;;;;;;9.20;99.90;;;;;;6248197;23;19903;-71
2022/12/21 06:05:41;;;;;;;;;;;9.20;99.90;;;;;;6248804;23;19907;-72
2022/12/21 06:08:06;;;;;;;;;;;9.20;99.90;;;;;;6248464;23;19899;-71
2022/12/21 06:10:34;;;;;;;;;;;9.20;99.90;;;;;;6248474;23;19906;-72
2022/12/21 06:13:00;;;;;;;;;;;9.30;99.90;;;;;;6248074;23;19900;-71
2022/12/21 06:15:25;;;;;;;;;;;9.20;99.90;;;;;;6248463;23;20322;-72
2022/12/21 06:17:51;;;;;;;;;;;9.20;99.90;;;;;;6248062;23;20017;-71
2022/12/21 06:20:17;;;;;;;;;;;9.30;99.90;;;;;;6248073;23;19950;-72
2022/12/21 06:22:42;;;;;;;;;;;9.20;99.90;;;;;;6248331;23;20234;-72
2022/12/21 06:25:08;;;;;;;;;;;9.20;99.90;;;;;;6248174;22;19908;-71
2022/12/21 06:27:33;;;;;;;;;;;9.20;99.90;;;;;;6248675;23;19986;-71
2022/12/21 06:29:59;;;;;;;;;;;9.10;99.90;;;;;;6247963;23;19978;-71
2022/12/21 06:32:24;;;;;;;;;;;9.20;99.90;;;;;;6247758;23;20288;-71
2022/12/21 06:34:50;;;;;;;;;;;9.20;99.90;;;;;;6247945;23;20338;-71
2022/12/21 06:37:15;;;;;;;;;;;9.30;99.90;;;;;;6248223;23;20322;-72
2022/12/21 06:39:41;;;;;;;;;;;9.30;99.90;;;;;;6248194;23;19899;-72
2022/12/21 06:42:06;;;;;;;;;;;9.30;99.90;;;;;;6247386;23;19900;-72
2022/12/21 06:44:32;;;;;;;;;;;9.40;99.90;;;;;;6221872;23;19900;-71
2022/12/21 06:46:58;;;;;;;;;;;9.40;99.90;;;;;;6247826;23;19899;-71
2022/12/21 06:49:23;;;;;;;;;;;9.40;99.90;;;;;;6247779;23;20321;-72
2022/12/21 06:51:49;;;;;;;;;;;9.40;99.90;;;;;;6247743;23;19906;-71
2022/12/21 06:54:14;;;;;;;;;;;9.40;99.90;;;;;;6248056;23;19900;-72
2022/12/21 06:56:40;;;;;;;;;;;9.50;99.90;;;;;;6247634;23;20376;-71
2022/12/21 06:59:05;;;;;;;;;;;9.40;99.90;;;;;;6247694;23;19946;-71
2022/12/21 07:01:32;;;;;;;;;;;9.40;99.90;;;;;;6247682;23;19899;-71
2022/12/21 07:03:57;;;;;;;;;;;9.50;99.90;;;;;;6220733;23;20234;-71
2022/12/21 07:06:24;;;;;;;;;;;9.50;99.90;;;;;;6247546;23;19907;-72
2022/12/21 07:08:50;;;;;;;;;;;9.50;99.90;;;;;;6247966;23;20368;-72
2022/12/21 07:11:17;;;;;;;;;;;9.40;99.90;;;;;;6247880;23;19903;-71
2022/12/21 07:13:43;;;;;;;;;;;9.50;99.90;;;;;;6247587;23;19965;-71
2022/12/21 07:16:10;;;;;;;;;;;9.50;99.90;;;;;;6247575;23;19982;-72
2022/12/21 07:18:36;;;;;;;;;;;9.60;99.90;;;;;;6247496;23;19903;-71
2022/12/21 07:21:03;;;;;;;;;;;9.60;99.90;;;;;;6247811;23;19900;-72
2022/12/21 07:23:29;;;;;;;;;;;9.70;99.90;;;;;;6247218;23;19923;-72
2022/12/21 07:25:56;;;;;;;;;;;9.70;99.90;;;;;;6247639;22;19903;-71
2022/12/21 07:28:22;;;;;;;;;;;9.80;99.90;;;;;;6247396;23;19899;-71
2022/12/21 07:30:48;;;;;;;;;;;9.90;99.90;;;;;;6247450;23;19931;-72
2022/12/21 07:33:18;;;;;;;;;;;9.90;99.90;;;;;;6247733;23;19915;-72
2022/12/21 07:35:44;;;;;;;;;;;9.90;99.90;;;;;;6247356;23;19939;-72
2022/12/21 07:38:11;;;;;;;;;;;10.00;99.90;;;;;;6247306;23;19899;-71
2022/12/21 07:40:37;;;;;;;;;;;10.00;99.90;;;;;;6247287;23;19931;-71
2022/12/21 07:43:07;;;;;;;;;;;10.00;99.90;;;;;;6247571;23;20298;-72
2022/12/21 07:45:32;;;;;;;;;;;10.00;99.90;;;;;;6247388;23;19904;-71
2022/12/21 07:47:58;;;;;;;;;;;10.00;99.90;;;;;;6247865;23;19934;-71
2022/12/21 07:50:23;;;;;;;;;;;10.10;99.90;;;;;;6247119;23;19978;-71
2022/12/21 07:52:49;;;;;;;;;;;10.10;99.90;;;;;;6247855;23;20265;-70
2022/12/21 07:55:14;;;;;;;;;;;10.10;99.90;;;;;;6247409;23;19906;-70
2022/12/21 07:57:40;;;;;;;;;;;10.20;99.90;;;;;;6247809;23;19939;-70
2022/12/21 08:00:06;;;;;;;;;;;10.10;99.90;;;;;;6247065;23;19900;-70
2022/12/21 08:02:31;;;;;;;;;;;10.10;99.90;;;;;;6247051;23;20341;-70
2022/12/21 08:04:58;;;;;;;;;;;10.10;99.90;;;;;;6247234;23;20234;-71
2022/12/21 08:07:23;;;;;;;;;;;10.10;99.90;;;;;;6246936;23;19903;-71
2022/12/21 08:09:49;;;;;;;;;;;10.20;99.90;;;;;;6247262;23;20326;-71
2022/12/21 08:12:14;;;;;;;;;;;10.20;99.90;;;;;;6246906;23;19982;-71
2022/12/21 08:14:40;;;;;;;;;;;10.30;99.90;;;;;;6247265;23;19900;-71
2022/12/21 08:17:05;;;;;;;;;;;10.30;99.90;;;;;;6246906;23;19907;-71
2022/12/21 08:19:31;;;;;;;;;;;10.30;99.90;;;;;;6247239;23;19977;-71
2022/12/21 08:21:57;;;;;;;;;;;10.40;99.90;;;;;;6219604;23;19900;-71
2022/12/21 08:24:22;;;;;;;;;;;10.40;99.90;;;;;;6247135;22;20233;-71
2022/12/21 08:26:48;;;;;;;;;;;10.40;99.90;;;;;;6247171;23;19903;-71
2022/12/21 08:29:13;;;;;;;;;;;10.50;99.90;;;;;;6246760;23;20349;-71
2022/12/21 08:31:39;;;;;;;;;;;10.50;99.90;;;;;;6246725;23;19911;-71
2022/12/21 08:34:05;;;;;;;;;;;10.50;99.90;;;;;;6247455;23;19900;-72
2022/12/21 08:36:31;;;;;;;;;;;10.60;99.90;;;;;;6247050;23;19899;-71
2022/12/21 08:38:57;;;;;;;;;;;10.60;99.90;;;;;;6247456;23;20228;-72
2022/12/21 08:41:22;;;;;;;;;;;10.60;99.90;;;;;;6246689;23;19906;-70
2022/12/21 08:43:48;;;;;;;;;;;10.70;99.90;;;;;;6246697;23;19977;-71
2022/12/21 08:46:14;;;;;;;;;;;10.70;99.90;;;;;;6246943;23;20281;-72
2022/12/21 08:48:39;;;;;;;;;;;10.70;99.90;;;;;;6246320;23;19899;-70
2022/12/21 08:51:06;;;;;;;;;;;10.70;99.90;;;;;;6246609;23;19978;-72
2022/12/21 08:53:32;;;;;;;;;;;10.70;99.90;;;;;;6246963;23;19899;-71
2022/12/21 08:55:57;;;;;;;;;;;10.70;99.90;;;;;;6246582;23;19982;-72
2022/12/21 08:58:23;;;;;;;;;;;10.80;99.90;;;;;;6246900;23;19910;-71
2022/12/21 09:00:52;;;;;;;;;;;10.80;99.90;;;;;;6246503;23;19905;-72
2022/12/21 09:03:18;;;;;;;;;;;10.80;99.90;;;;;;6247239;23;20380;-71
2022/12/21 09:05:45;;;;;;;;;;;10.80;99.90;;;;;;6246139;23;20002;-71
2022/12/21 09:08:11;;;;;;;;;;;10.80;99.90;;;;;;6246520;23;19900;-71
2022/12/21 09:10:37;;;;;;;;;;;10.80;99.90;;;;;;6246314;23;19907;-71
2022/12/21 09:13:02;;;;;;;;;;;10.90;99.90;;;;;;6246554;23;19987;-72
2022/12/21 09:15:28;;;;;;;;;;;10.90;99.90;;;;;;6246536;23;19934;-74
2022/12/21 09:17:53;;;;;;;;;;;11.00;99.90;;;;;;6246541;23;19910;-71
2022/12/21 09:20:19;;;;;;;;;;;11.00;99.90;;;;;;6246457;23;19903;-72
2022/12/21 09:22:44;;;;;;;;;;;11.10;99.90;;;;;;6246436;23;19915;-72
2022/12/21 09:25:10;;;;;;;;;;;11.10;99.90;;;;;;6246645;22;19910;-75
2022/12/21 09:27:35;;;;;;;;;;;11.20;99.90;;;;;;6246294;23;19900;-72
2022/12/21 09:30:01;;;;;;;;;;;11.40;99.90;;;;;;6245965;23;19900;-71
2022/12/21 09:32:26;;;;;;;;;;;11.40;99.90;;;;;;6245742;23;19918;-71
2022/12/21 09:34:52;;;;;;;;;;;11.40;99.90;;;;;;6246410;23;19900;-72
2022/12/21 09:37:18;;;;;;;;;;;11.30;99.90;;;;;;6246449;23;19900;-72
2022/12/21 09:39:44;;;;;;;;;;;11.30;99.90;;;;;;6246352;23;19937;-72
2022/12/21 09:42:12;;;;;;;;;;;11.30;99.90;;;;;;6246377;23;19950;-72
2022/12/21 09:44:43;;;;;;;;;;;11.30;99.90;;;;;;6246930;23;19900;-72
2022/12/21 09:47:13;;;;;;;;;;;11.30;99.90;;;;;;6246366;23;19900;-71
2022/12/21 09:49:44;;;;;;;;;;;11.30;99.90;;;;;;6246212;23;19904;-72
2022/12/21 09:52:17;;;;;;;;;;;11.40;99.90;;;;;;6246295;23;19900;-72
2022/12/21 09:54:46;;;;;;;;;;;11.40;99.90;;;;;;6246353;23;19922;-72
2022/12/21 09:57:12;;;;;;;;;;;11.40;99.90;;;;;;6246630;23;20269;-72
2022/12/21 09:59:38;;;;;;;;;;;11.50;99.90;;;;;;6246312;23;19906;-72
2022/12/21 10:02:06;;;;;;;;;;;11.60;99.90;;;;;;6246296;23;19899;-72
2022/12/21 10:04:41;;;;;;;;;;;11.60;99.90;;;;;;6246491;23;19899;-72
2022/12/21 10:07:07;;;;;;;;;;;11.60;99.90;;;;;;6246578;23;20299;-72
2022/12/21 10:09:45;;;;;;;;;;;11.60;99.90;;;;;;6246247;23;20327;-72
2022/12/21 10:12:25;;;;;;;;;;;11.60;99.90;;;;;;6246238;23;20241;-72
2022/12/21 10:15:02;;;;;;;;;;;11.60;99.90;;;;;;6246919;23;19906;-72
2022/12/21 10:17:46;;;;;;;;;;;11.60;99.90;;;;;;6246461;23;19930;-71
2022/12/21 10:20:16;;;;;;;;;;;11.80;99.90;;;;;;6248721;23;19935;-72
2022/12/21 10:22:48;;;;;;;;;;;11.90;99.90;;;;;;6248034;23;19925;-72
2022/12/21 10:25:24;;;;;;;;;;;12.20;99.90;;;;;;6247741;22;19907;-72
2022/12/21 10:27:52;;;;;;;;;;;12.40;99.90;;;;;;6247949;23;19900;-72
2022/12/21 10:30:18;;;;;;;;;;;12.80;99.90;;;;;;6247906;23;20242;-72
2022/12/21 10:32:45;;;;;;;;;;;13.00;99.90;;;;;;6247470;23;19922;-72
2022/12/21 10:35:33;;;;;;;;;;;13.30;99.90;;;;;;6247920;23;19907;-72
2022/12/21 10:37:59;;;;;;;;;;;13.70;99.90;;;;;;6248632;23;19900;-72
2022/12/21 10:40:26;;;;;;;;;;;14.10;99.90;;;;;;6248229;23;19906;-72
2022/12/21 10:42:53;;;;;;;;;;;14.10;99.90;;;;;;6247850;23;19949;-72
2022/12/21 10:45:20;;;;;;;;;;;13.90;99.90;;;;;;6248330;23;20283;-72
2022/12/21 10:47:46;;;;;;;;;;;13.90;99.90;;;;;;6247869;23;19899;-72
2022/12/21 10:50:21;;;;;;;;;;;13.80;99.90;;;;;;6247792;23;19954;-72
2022/12/21 10:52:51;;;;;;;;;;;13.60;99.90;;;;;;6248066;23;19906;-72
2022/12/21 10:55:16;;;;;;;;;;;13.50;99.90;;;;;;6247657;23;19900;-72
2022/12/21 10:57:42;;;;;;;;;;;13.30;99.90;;;;;;6248364;23;19906;-72
2022/12/21 11:00:25;;;;;;;;;;;13.20;99.90;;;;;;6247716;23;20219;-72
2022/12/21 11:02:52;;;;;;;;;;;13.10;99.90;;;;;;6248401;23;19899;-72
2022/12/21 11:05:28;;;;;;;;;;;13.20;99.90;;;;;;6247911;23;19953;-72
2022/12/21 11:08:09;;;;;;;;;;;13.20;99.90;;;;;;6247933;23;19905;-71
2022/12/21 11:10:35;;;;;;;;;;;13.20;99.90;;;;;;6247973;23;19974;-72
2022/12/21 11:13:04;;;;;;;;;;;13.40;99.90;;;;;;6248228;23;19922;-72
2022/12/21 11:15:29;;;;;;;;;;;13.40;99.90;;;;;;6247880;23;19922;-72
2022/12/21 11:17:55;;;;;;;;;;;13.30;99.90;;;;;;6248241;23;20218;-72
2022/12/21 11:20:23;;;;;;;;;;;13.30;99.90;;;;;;6247656;23;19915;-72
2022/12/21 11:22:50;;;;;;;;;;;13.40;99.90;;;;;;6248099;23;20269;-72
2022/12/21 11:25:17;;;;;;;;;;;13.50;99.90;;;;;;6247221;22;19962;-72
2022/12/21 11:27:44;;;;;;;;;;;13.30;99.90;;;;;;6247706;23;19899;-72
2022/12/21 11:30:23;;;;;;;;;;;13.20;99.90;;;;;;6247179;23;19974;-72
2022/12/21 11:32:49;;;;;;;;;;;13.30;99.90;;;;;;6246829;23;20326;-72
2022/12/21 11:35:23;;;;;;;;;;;13.70;99.90;;;;;;6247321;23;19904;-71
2022/12/21 11:38:07;;;;;;;;;;;13.90;99.90;;;;;;6248002;23;19906;-72
2022/12/21 11:40:32;;;;;;;;;;;14.00;99.90;;;;;;6247237;23;19998;-72
2022/12/21 11:42:58;;;;;;;;;;;14.20;99.90;;;;;;6247298;23;20346;-72
2022/12/21 11:45:42;;;;;;;;;;;14.20;99.90;;;;;;6247791;23;20278;-72
2022/12/21 11:48:07;;;;;;;;;;;14.30;99.90;;;;;;6247114;23;19926;-72
2022/12/21 11:50:37;;;;;;;;;;;14.30;99.90;;;;;;6247171;23;19933;-72
2022/12/21 11:53:38;;;;;;;;;;;14.30;99.90;;;;;;6247897;23;19954;-72
2022/12/21 11:56:22;;;;;;;;;;;14.40;99.90;;;;;;6096255;23;19964;-72
2022/12/21 11:59:05;;;;;;;;;;;14.60;99.90;;;;;;6234160;23;19900;-72
2022/12/21 12:01:31;;;;;;;;;;;14.60;99.90;;;;;;6247470;23;19950;-72
2022/12/21 12:04:05;;;;;;;;;;;14.60;99.90;;;;;;6247010;23;19899;-72
2022/12/21 12:06:42;;;;;;;;;;;14.50;99.90;;;;;;6247675;23;19986;-72
2022/12/21 12:09:26;;;;;;;;;;;14.40;99.90;;;;;;6247315;23;20026;-72
2022/12/21 12:12:07;;;;;;;;;;;14.10;99.90;;;;;;6247283;23;19899;-72
2022/12/21 12:14:53;;;;;;;;;;;14.00;99.90;;;;;;6246897;23;19900;-72
2022/12/21 12:17:18;;;;;;;;;;;13.90;99.90;;;;;;6245964;23;19900;-72
2022/12/21 12:19:55;;;;;;;;;;;14.00;99.90;;;;;;6247625;23;19907;-72
2022/12/21 12:22:47;;;;;;;;;;;13.90;99.90;;;;;;6246916;23;19903;-71
2022/12/21 12:25:28;;;;;;;;;;;14.00;99.90;;;;;;6188856;22;19910;-72
2022/12/21 12:27:54;;;;;;;;;;;14.10;99.90;;;;;;6246820;23;20226;-71
2022/12/21 12:30:23;;;;;;;;;;;14.40;99.90;;;;;;6246887;23;19900;-72
2022/12/21 12:33:05;;;;;;;;;;;14.70;99.90;;;;;;6246277;22;19911;-72
2022/12/21 12:35:48;;;;;;;;;;;14.90;99.90;;;;;;6247533;23;19933;-72
2022/12/21 12:38:19;;;;;;;;;;;14.90;99.90;;;;;;6247044;23;20284;-72
2022/12/21 12:40:57;;;;;;;;;;;14.80;99.90;;;;;;6246775;23;19950;-72
2022/12/21 12:43:28;;;;;;;;;;;14.70;99.90;;;;;;6246702;23;19900;-72
2022/12/21 12:45:59;;;;;;;;;;;14.80;99.90;;;;;;6246578;23;19914;-72
2022/12/21 12:48:36;;;;;;;;;;;15.00;99.90;;;;;;6247287;23;19900;-72
2022/12/21 12:51:15;;;;;;;;;;;14.80;99.90;;;;;;6246624;23;19900;-72
2022/12/21 12:53:56;;;;;;;;;;;14.60;99.90;;;;;;6247313;23;19899;-72
2022/12/21 12:56:40;;;;;;;;;;;14.60;99.90;;;;;;6246984;23;19969;-72
2022/12/21 12:59:28;;;;;;;;;;;14.40;99.90;;;;;;6246880;23;19953;-72
2022/12/21 13:01:59;;;;;;;;;;;14.20;99.90;;;;;;6246520;23;19979;-72
2022/12/21 13:04:27;;;;;;;;;;;14.10;99.90;;;;;;6247211;23;19907;-72
2022/12/21 13:06:55;;;;;;;;;;;14.10;99.90;;;;;;6246747;23;19903;-72
2022/12/21 13:09:21;;;;;;;;;;;14.20;99.90;;;;;;6246822;23;20314;-72
2022/12/21 13:11:52;;;;;;;;;;;14.30;99.90;;;;;;6246476;23;19899;-72
2022/12/21 13:14:31;;;;;;;;;;;14.30;99.90;;;;;;6247259;23;19922;-72
2022/12/21 13:17:04;;;;;;;;;;;14.30;99.90;;;;;;6246506;23;20237;-72
2022/12/21 13:19:30;;;;;;;;;;;14.20;99.90;;;;;;6246438;23;20211;-72
2022/12/21 13:21:59;;;;;;;;;;;14.20;99.90;;;;;;6246804;23;19904;-72
2022/12/21 13:24:33;;;;;;;;;;;14.20;99.90;;;;;;6246603;22;19903;-72
2022/12/21 13:27:03;;;;;;;;;;;14.00;99.90;;;;;;6246864;23;19908;-72
2022/12/21 13:29:32;;;;;;;;;;;14.10;99.90;;;;;;6246460;23;19899;-72
2022/12/21 13:32:01;;;;;;;;;;;14.10;99.90;;;;;;6245540;22;19957;-72
2022/12/21 13:34:29;;;;;;;;;;;14.30;99.90;;;;;;6245122;23;19903;-72
2022/12/21 13:36:56;;;;;;;;;;;14.60;99.90;;;;;;6245393;23;19899;-72
2022/12/21 13:39:28;;;;;;;;;;;14.70;99.90;;;;;;6245364;23;19953;-72
2022/12/21 13:42:00;;;;;;;;;;;14.80;99.90;;;;;;6245410;23;19904;-72
2022/12/21 13:44:29;;;;;;;;;;;15.00;99.90;;;;;;6244965;23;19910;-72
2022/12/21 13:46:55;;;;;;;;;;;15.20;99.90;;;;;;6245239;23;20314;-73
2022/12/21 13:49:20;;;;;;;;;;;15.30;99.90;;;;;;6244847;23;19900;-72
2022/12/21 13:51:55;;;;;;;;;;;15.30;99.90;;;;;;6245861;23;19900;-72
2022/12/21 13:54:29;;;;;;;;;;;15.30;99.90;;;;;;6246647;23;19900;-72
2022/12/21 13:56:55;;;;;;;;;;;15.30;99.90;;;;;;6246209;23;19931;-72
2022/12/21 13:59:23;;;;;;;;;;;15.20;99.90;;;;;;6246126;23;19899;-72
2022/12/21 14:02:04;;;;;;;;;;;15.20;99.90;;;;;;6246014;23;19903;-72
2022/12/21 14:04:38;;;;;;;;;;;15.20;99.90;;;;;;6246448;23;20222;-72
2022/12/21 14:07:22;;;;;;;;;;;15.10;99.90;;;;;;6246079;23;19996;-72
2022/12/21 14:10:01;;;;;;;;;;;14.80;99.90;;;;;;6219203;23;20302;-72
2022/12/21 14:12:29;;;;;;;;;;;14.60;99.90;;;;;;6246481;23;19899;-72
2022/12/21 14:15:18;;;;;;;;;;;14.50;99.90;;;;;;6246107;23;19907;-72
2022/12/21 14:17:45;;;;;;;;;;;14.60;99.90;;;;;;6176328;23;19903;-72
2022/12/21 14:20:22;;;;;;;;;;;14.70;99.90;;;;;;6246184;23;19899;-72
2022/12/21 14:22:48;;;;;;;;;;;14.60;99.90;;;;;;6246747;23;20230;-72
2022/12/21 14:25:28;;;;;;;;;;;14.40;99.90;;;;;;6245897;22;19915;-72
2022/12/21 14:28:12;;;;;;;;;;;14.30;99.90;;;;;;6245985;23;19910;-72
2022/12/21 14:30:45;;;;;;;;;;;14.10;99.90;;;;;;6195245;23;1172849;-72
2022/12/21 14:33:13;;;;;;;;;;;14.00;99.90;;;;;;6248528;23;20273;-72
2022/12/21 14:35:42;;;;;;;;;;;14.00;99.90;;;;;;6247876;23;20314;-72
2022/12/21 14:38:19;;;;;;;;;;;14.00;99.90;;;;;;6248086;23;19900;-72
2022/12/21 14:40:55;;;;;;;;;;;13.90;99.90;;;;;;6247642;23;19946;-72
2022/12/21 14:43:21;;;;;;;;;;;13.90;99.90;;;;;;6247556;23;19899;-72
2022/12/21 14:45:47;;;;;;;;;;;13.70;99.90;;;;;;6247415;23;19910;-72
2022/12/21 14:48:21;;;;;;;;;;;13.70;99.90;;;;;;6247649;23;19899;-72
2022/12/21 14:50:56;;;;;;;;;;;13.60;99.90;;;;;;6248096;23;20225;-72